createdAt,value
2022-10-20T05:28:14.524Z,11.79
2022-10-20T05:45:03.216Z,14.41
2022-10-20T05:59:52.715Z,18.17
2022-10-20T06:14:43.904Z,17.70
2022-10-20T06:29:34.629Z,15.73
2022-10-20T06:44:27.670Z,17.81
2022-10-20T07:14:11.130Z,12.67
2022-10-20T07:29:02.952Z,14.62
2022-10-20T07:43:53.997Z,17.16
2022-10-20T07:58:45.931Z,13.56
2022-10-20T08:13:38.031Z,12.92
2022-10-20T08:28:30.077Z,15.40
2022-10-20T08:43:22.835Z,17.11
2022-10-20T08:58:15.032Z,16.32
2022-10-20T09:13:07.070Z,14.87
2022-10-20T09:27:59.712Z,15.13
2022-10-20T09:42:51.351Z,15.58
2022-10-20T09:57:43.589Z,12.22
2022-10-20T10:12:36.508Z,14.37
2022-10-20T10:27:30.042Z,15.16
2022-10-20T10:43:02.637Z,15.23
2022-10-20T10:58:11.942Z,11.80
2022-10-20T11:13:24.500Z,12.03
2022-10-20T11:28:27.717Z,12.49
2022-10-20T11:43:27.434Z,13.40
2022-10-20T11:58:42.616Z,12.13
2022-10-20T12:43:53.397Z,14.86
2022-10-20T12:59:07.146Z,12.19
2022-10-20T13:14:12.445Z,11.16
2022-10-20T13:29:11.906Z,14.86
2022-10-20T13:44:09.852Z,14.80
2022-10-20T13:59:05.504Z,14.33
2022-10-20T14:13:56.301Z,19.89
2022-10-20T14:28:47.822Z,14.72
2022-10-20T14:43:40.016Z,15.62
2022-10-20T15:13:42.397Z,15.83
2022-10-20T15:28:39.768Z,12.01
2022-10-20T15:43:34.775Z,12.06
2022-10-20T15:58:26.214Z,16.49
2022-10-20T16:13:20.536Z,17.71
2022-10-20T16:28:11.936Z,19.62
2022-10-20T16:43:03.701Z,23.02
2022-10-20T16:57:55.591Z,22.80
2022-10-20T17:27:41.206Z,29.62
2022-10-20T17:42:36.204Z,26.92
2022-10-20T17:57:26.546Z,35.36
2022-10-20T18:12:18.456Z,28.91
2022-10-20T18:27:11.415Z,30.16
2022-10-20T18:42:03.749Z,32.30
2022-10-20T18:57:00.528Z,26.10
2022-10-20T19:26:46.702Z,23.12
2022-10-20T19:41:36.292Z,21.46
2022-10-20T20:11:46.181Z,21.83
2022-10-20T20:26:38.357Z,20.27
2022-10-20T20:41:30.409Z,20.88
2022-10-20T20:56:24.559Z,26.97
2022-10-20T21:11:15.132Z,27.12
2022-10-20T21:26:06.611Z,23.24
2022-10-20T21:41:08.213Z,22.38
2022-10-20T21:56:04.187Z,22.43
2022-10-20T22:10:55.428Z,24.34
2022-10-20T22:25:47.925Z,27.06
2022-10-20T22:40:40.127Z,23.66
2022-10-20T22:55:31.888Z,24.83
2022-10-20T23:10:24.076Z,26.49
2022-10-20T23:25:17.124Z,24.86
2022-10-20T23:40:10.155Z,26.74
2022-10-20T23:55:02.876Z,28.74
